Time;durP1;ratioP1;P1;durP2;ratioP2;P2;SDS_P1;SDS_P2;PMS_P1;PMS_P2;Temp;Humidity;BMP_temperature;BMP_pressure;BME280_temperature;BME280_humidity;BME280_pressure;Samples;Min_cycle;Max_cycle;Signal;HPM_P1;HPM_P2
2022/04/06 00:01:16;;;;;;;;;3.00;3.00;;;;;11.66;57.62;100350.06;5035004;28;47682;-63
2022/04/06 00:03:43;;;;;;;;;2.33;2.33;;;;;11.64;57.12;100340.50;5035375;28;45792;-63
2022/04/06 00:06:09;;;;;;;;;3.67;3.00;;;;;11.60;56.74;100345.03;5035406;28;45344;-64
2022/04/06 00:08:34;;;;;;;;;2.00;2.00;;;;;11.55;56.13;100336.47;5034157;28;47207;-64
2022/04/06 00:10:59;;;;;;;;;3.00;2.00;;;;;11.53;56.25;100343.63;5035173;28;45433;-64
2022/04/06 00:13:25;;;;;;;;;1.00;1.00;;;;;11.49;55.68;100342.88;5035219;28;45515;-64
2022/04/06 00:15:50;;;;;;;;;1.67;1.67;;;;;11.42;56.06;100335.34;5035202;28;45516;-65
2022/04/06 00:18:16;;;;;;;;;1.00;1.00;;;;;11.45;55.84;100343.09;5035217;28;46212;-64
2022/04/06 00:20:41;;;;;;;;;1.00;1.00;;;;;11.45;55.90;100343.94;5035203;28;45431;-63
2022/04/06 00:23:06;;;;;;;;;1.67;1.67;;;;;11.44;55.57;100325.56;5035547;28;45379;-65
2022/04/06 00:25:32;;;;;;;;;1.00;1.00;;;;;11.46;56.12;100321.94;5035280;28;45426;-64
2022/04/06 00:27:58;;;;;;;;;1.00;1.00;;;;;11.47;56.11;100323.69;5035002;28;45911;-64
2022/04/06 00:30:24;;;;;;;;;1.00;1.00;;;;;11.49;55.73;100324.44;5034894;28;45381;-63
2022/04/06 00:32:49;;;;;;;;;2.00;1.00;;;;;11.51;55.88;100316.50;5035134;28;45428;-64
2022/04/06 00:35:31;;;;;;;;;1.00;1.00;;;;;11.54;56.30;100318.13;5034939;28;45406;-64
2022/04/06 00:38:01;;;;;;;;;0.67;0.33;;;;;11.53;55.94;100311.16;5034957;28;46046;-64
2022/04/06 00:40:27;;;;;;;;;2.00;2.00;;;;;11.55;56.09;100310.16;5034859;28;45449;-65
2022/04/06 00:42:53;;;;;;;;;0.00;0.00;;;;;11.56;55.82;100301.34;5034998;28;45424;-64
2022/04/06 00:45:20;;;;;;;;;1.00;1.00;;;;;11.56;55.38;100303.13;5033612;28;45633;-64
2022/04/06 00:47:45;;;;;;;;;2.00;2.00;;;;;11.52;55.47;100302.38;5034604;28;46130;-63
2022/04/06 00:50:11;;;;;;;;;0.33;0.33;;;;;11.49;55.88;100298.09;5034816;28;45465;-63
2022/04/06 00:52:37;;;;;;;;;0.00;0.00;;;;;11.39;55.90;100281.03;5034663;28;45423;-64
2022/04/06 00:55:04;;;;;;;;;2.00;1.00;;;;;11.42;55.66;100290.56;5034569;28;45618;-64
2022/04/06 00:57:29;;;;;;;;;1.67;1.67;;;;;11.40;56.34;100281.88;5034482;28;45477;-63
2022/04/06 00:59:58;;;;;;;;;1.00;1.00;;;;;11.37;56.80;100287.28;5034325;28;45486;-62
2022/04/06 01:02:24;;;;;;;;;1.33;1.33;;;;;11.38;56.35;100278.44;5034535;28;45384;-65
2022/04/06 01:04:50;;;;;;;;;2.00;2.00;;;;;11.39;56.75;100277.50;5034651;28;45551;-64
2022/04/06 01:07:15;;;;;;;;;1.00;1.00;;;;;11.37;56.19;100284.66;5034210;28;45922;-64
2022/04/06 01:09:41;;;;;;;;;2.00;2.00;;;;;11.35;57.35;100284.69;5034614;28;45453;-64
2022/04/06 01:12:06;;;;;;;;;1.67;1.67;;;;;11.30;56.91;100270.88;5033390;28;45477;-64
2022/04/06 01:14:32;;;;;;;;;2.00;2.00;;;;;11.28;57.02;100280.63;5034373;28;45370;-64
2022/04/06 01:17:03;;;;;;;;;2.00;1.00;;;;;11.26;56.42;100267.53;5034464;28;45454;-64
2022/04/06 01:19:30;;;;;;;;;1.00;1.00;;;;;11.25;57.00;100265.81;5036073;28;45435;-64
2022/04/06 01:21:55;;;;;;;;;2.00;2.00;;;;;11.23;57.53;100269.41;5037770;28;45411;-64
2022/04/06 01:24:21;;;;;;;;;2.33;1.00;;;;;11.19;56.86;100267.84;5037729;28;45588;-64
2022/04/06 01:26:48;;;;;;;;;0.33;0.33;;;;;11.12;57.80;100255.88;5037791;28;45952;-64
2022/04/06 01:29:13;;;;;;;;;1.67;1.33;;;;;11.09;57.31;100258.66;5037667;28;45446;-63
2022/04/06 01:31:38;;;;;;;;;1.33;1.33;;;;;11.07;58.30;100266.63;5037837;28;45457;-63
2022/04/06 01:34:03;;;;;;;;;2.00;1.00;;;;;11.05;57.92;100264.03;5037839;28;45529;-63
2022/04/06 01:36:29;;;;;;;;;1.67;1.00;;;;;11.02;57.82;100261.53;5037463;28;45433;-64
2022/04/06 01:38:57;;;;;;;;;1.00;1.00;;;;;10.98;57.74;100253.84;5037683;28;45396;-64
2022/04/06 01:41:22;;;;;;;;;0.67;0.00;;;;;11.00;57.38;100252.00;5037593;28;45451;-63
2022/04/06 01:43:47;;;;;;;;;1.00;1.00;;;;;10.98;58.27;100261.72;5037438;28;45363;-64
2022/04/06 01:46:13;;;;;;;;;1.33;1.33;;;;;10.95;58.29;100260.09;5037499;28;45482;-64
2022/04/06 01:52:12;;;;;;;;;2.00;1.00;;;;;10.97;57.67;100260.03;5036015;28;46566;-64
2022/04/06 01:54:07;;;;;;;;;3.67;3.67;;;;;10.94;58.06;100258.38;5037356;28;45415;-64
2022/04/06 01:56:33;;;;;;;;;1.00;1.00;;;;;10.90;57.84;100255.94;5037156;28;45354;-63
2022/04/06 01:58:59;;;;;;;;;1.33;1.00;;;;;10.89;57.94;100254.25;5037194;28;45422;-63
2022/04/06 02:01:24;;;;;;;;;1.00;1.00;;;;;10.88;58.45;100255.13;5036041;28;45482;-64
2022/04/06 02:03:49;;;;;;;;;1.00;1.00;;;;;10.87;58.10;100256.06;5037346;28;45336;-64
2022/04/06 02:06:15;;;;;;;;;1.00;1.00;;;;;10.84;58.43;100243.91;5036842;28;45675;-64
2022/04/06 02:08:40;;;;;;;;;1.33;1.33;;;;;10.81;58.33;100252.78;5037050;28;45466;-64
2022/04/06 02:11:07;;;;;;;;;1.00;1.00;;;;;10.78;58.03;100249.44;5037416;28;45455;-64
2022/04/06 02:13:32;;;;;;;;;0.67;0.67;;;;;10.77;58.43;100240.69;5035868;28;45413;-63
2022/04/06 02:15:58;;;;;;;;;3.00;2.00;;;;;10.77;58.69;100245.94;5033258;28;46139;-64
2022/04/06 02:18:23;;;;;;;;;1.67;1.67;;;;;10.75;58.57;100231.16;5033258;28;45558;-64
2022/04/06 02:20:49;;;;;;;;;2.00;1.00;;;;;10.73;58.29;100236.47;5037258;28;45375;-64
2022/04/06 02:23:14;;;;;;;;;1.67;1.00;;;;;10.69;57.96;100231.38;5036940;28;45446;-65
2022/04/06 02:25:39;;;;;;;;;0.33;0.33;;;;;10.73;58.67;100243.50;5035410;28;45430;-63
2022/04/06 02:28:05;;;;;;;;;1.00;1.00;;;;;10.69;58.23;100234.88;5036688;28;45410;-63
2022/04/06 02:30:30;;;;;;;;;0.00;0.00;;;;;10.66;58.34;100228.88;5036072;28;45460;-62
2022/04/06 02:32:56;;;;;;;;;0.67;0.67;;;;;10.68;58.08;100216.53;5036965;28;45339;-64
2022/04/06 02:35:21;;;;;;;;;1.00;1.00;;;;;10.72;57.85;100218.97;5018580;28;45649;-63
2022/04/06 02:37:47;;;;;;;;;0.00;0.00;;;;;10.71;57.96;100217.25;5036676;28;45443;-64
2022/04/06 02:40:14;;;;;;;;;1.00;1.00;;;;;10.78;57.54;100221.34;5036777;28;45527;-64
2022/04/06 02:42:40;;;;;;;;;2.00;1.00;;;;;10.80;57.59;100219.50;5036798;28;45413;-64
2022/04/06 02:45:05;;;;;;;;;2.67;1.00;;;;;10.86;57.60;100214.91;5036320;28;46192;-65
2022/04/06 02:47:31;;;;;;;;;1.00;1.00;;;;;10.85;57.50;100211.41;5036453;28;45379;-64
2022/04/06 02:49:56;;;;;;;;;2.00;1.00;;;;;10.90;57.99;100205.94;5036646;28;45614;-63
2022/04/06 02:52:22;;;;;;;;;0.33;0.33;;;;;10.92;57.24;100214.66;5036366;28;45548;-64
2022/04/06 02:54:47;;;;;;;;;1.33;1.00;;;;;10.94;56.98;100221.56;5036356;28;45807;-64
2022/04/06 02:57:13;;;;;;;;;0.67;0.67;;;;;10.96;57.31;100209.19;5035073;28;45549;-63
2022/04/06 02:59:40;;;;;;;;;0.00;0.00;;;;;10.93;57.98;100200.56;5036431;28;45446;-63
2022/04/06 03:02:05;;;;;;;;;0.67;0.33;;;;;10.97;57.14;100212.66;5036409;28;45684;-64
2022/04/06 03:04:30;;;;;;;;;1.00;1.00;;;;;10.96;57.04;100203.03;5035972;28;45600;-63
2022/04/06 03:06:56;;;;;;;;;1.00;1.00;;;;;10.91;57.68;100194.50;5036208;28;45371;-66
2022/04/06 03:09:21;;;;;;;;;0.33;0.33;;;;;10.95;57.80;100196.94;5036680;28;45493;-64
2022/04/06 03:11:47;;;;;;;;;0.00;0.00;;;;;10.95;57.57;100199.56;5036284;28;45373;-63
2022/04/06 03:14:12;;;;;;;;;0.00;0.00;;;;;10.97;58.30;100194.25;5036134;28;46617;-64
2022/04/06 03:16:37;;;;;;;;;0.00;0.00;;;;;10.92;57.80;100188.34;5036314;28;45355;-64
2022/04/06 03:19:03;;;;;;;;;0.00;0.00;;;;;10.95;57.86;100181.16;5036375;28;45430;-65
2022/04/06 03:21:28;;;;;;;;;3.67;2.00;;;;;10.99;58.14;100187.16;5036132;28;45578;-64
2022/04/06 03:23:53;;;;;;;;;0.00;0.00;;;;;10.98;57.88;100181.00;5035959;28;45394;-64
2022/04/06 03:26:19;;;;;;;;;0.33;0.33;;;;;10.99;57.62;100179.25;5036021;28;45379;-64
2022/04/06 03:28:44;;;;;;;;;1.00;1.00;;;;;10.97;57.25;100179.31;5036096;28;45543;-64
2022/04/06 03:31:09;;;;;;;;;0.00;0.00;;;;;10.97;57.93;100178.47;5035976;28;45544;-64
2022/04/06 03:33:35;;;;;;;;;0.00;0.00;;;;;10.97;56.87;100178.47;5035703;28;45451;-64
2022/04/06 03:36:01;;;;;;;;;0.33;0.33;;;;;10.93;56.84;100158.47;5034718;28;45744;-64
2022/04/06 03:38:26;;;;;;;;;0.67;0.67;;;;;10.91;57.42;100162.91;5036051;28;45537;-64
2022/04/06 03:40:51;;;;;;;;;0.00;0.00;;;;;10.92;57.23;100162.03;5035784;28;45517;-64
2022/04/06 03:43:17;;;;;;;;;0.00;0.00;;;;;10.93;57.35;100158.47;5034277;28;52318;-63
2022/04/06 03:45:42;;;;;;;;;0.00;0.00;;;;;10.93;57.50;100166.34;5035497;28;45489;-63
2022/04/06 03:48:08;;;;;;;;;0.00;0.00;;;;;10.96;57.78;100160.94;5035978;28;45431;-64
2022/04/06 03:50:33;;;;;;;;;1.00;0.00;;;;;10.97;56.98;100165.31;5035580;28;45477;-64
2022/04/06 03:52:59;;;;;;;;;1.33;0.00;;;;;10.94;57.33;100160.19;5035353;28;45654;-64
2022/04/06 03:55:24;;;;;;;;;1.00;0.00;;;;;11.00;57.53;100160.75;5035704;28;45359;-64
2022/04/06 03:57:50;;;;;;;;;0.33;0.33;;;;;10.99;57.69;100159.06;5035709;28;45739;-64
2022/04/06 04:00:15;;;;;;;;;0.00;0.00;;;;;11.00;57.37;100159.91;5035599;28;45463;-64
2022/04/06 04:02:41;;;;;;;;;1.00;0.00;;;;;11.01;57.52;100161.59;5035272;28;45474;-64
2022/04/06 04:05:07;;;;;;;;;0.00;0.00;;;;;10.97;57.69;100152.16;5035163;28;45437;-63
2022/04/06 04:07:37;;;;;;;;;1.00;1.00;;;;;10.98;57.85;100159.13;5035482;28;45458;-63
2022/04/06 04:10:06;;;;;;;;;1.00;1.00;;;;;10.98;57.11;100162.59;5035075;28;45509;-64
2022/04/06 04:12:33;;;;;;;;;0.00;0.00;;;;;11.00;58.04;100163.38;5035043;28;47667;-64
2022/04/06 04:14:58;;;;;;;;;1.00;1.00;;;;;11.00;57.24;100160.75;5035353;28;45518;-64
2022/04/06 04:17:23;;;;;;;;;0.00;0.00;;;;;11.01;57.35;100164.22;5035287;28;45300;-64
2022/04/06 04:19:49;;;;;;;;;0.00;0.00;;;;;10.99;58.07;100161.69;5035181;28;45367;-63
2022/04/06 04:22:14;;;;;;;;;0.00;0.00;;;;;10.98;58.11;100159.97;5035171;28;45472;-64
2022/04/06 04:24:40;;;;;;;;;1.00;1.00;;;;;10.94;58.70;100149.66;5034904;28;45411;-63
2022/04/06 04:27:05;;;;;;;;;1.00;1.00;;;;;10.96;57.76;100159.19;5033919;28;45359;-63
2022/04/06 04:29:30;;;;;;;;;1.33;1.33;;;;;10.98;58.53;100159.13;5035107;28;45545;-64
2022/04/06 04:31:56;;;;;;;;;1.00;1.00;;;;;10.98;58.19;100159.13;5034801;28;49704;-64
2022/04/06 04:34:21;;;;;;;;;0.00;0.00;;;;;10.95;57.94;100154.84;5034902;28;45443;-63
2022/04/06 04:36:46;;;;;;;;;1.00;1.00;;;;;10.95;58.36;100139.06;5035112;28;45417;-64
2022/04/06 04:39:12;;;;;;;;;1.67;1.67;;;;;10.96;57.87;100140.78;5035126;28;45433;-64
2022/04/06 04:41:37;;;;;;;;;1.33;1.33;;;;;10.92;58.65;100130.44;5034917;28;46081;-63
2022/04/06 04:44:03;;;;;;;;;1.67;0.00;;;;;10.93;58.08;100129.50;5035047;28;45461;-64
2022/04/06 04:46:28;;;;;;;;;1.00;1.00;;;;;10.93;58.74;100133.00;5033711;28;45518;-63
2022/04/06 04:48:54;;;;;;;;;1.00;1.00;;;;;10.95;58.03;100123.25;5034876;28;45445;-63
2022/04/06 04:51:19;;;;;;;;;2.33;1.33;;;;;10.98;58.06;100124.91;5033321;28;46245;-65
2022/04/06 04:53:45;;;;;;;;;1.00;1.00;;;;;10.99;58.76;100126.63;5035212;28;45498;-64
2022/04/06 04:56:10;;;;;;;;;1.67;1.00;;;;;10.99;57.90;100126.63;5038582;28;45900;-64
2022/04/06 04:58:36;;;;;;;;;1.00;1.00;;;;;10.97;58.59;100116.16;5038258;28;45375;-64
2022/04/06 05:01:02;;;;;;;;;3.00;1.00;;;;;10.99;58.57;100116.09;5038020;28;45418;-64
2022/04/06 05:03:27;;;;;;;;;1.00;1.00;;;;;10.96;58.35;100110.97;5038218;28;45585;-64
2022/04/06 05:05:53;;;;;;;;;1.33;1.33;;;;;10.99;57.77;100119.59;5036463;28;45425;-64
2022/04/06 05:08:22;;;;;;;;;1.00;1.00;;;;;11.00;58.14;100112.53;5038108;28;45602;-64
2022/04/06 05:10:48;;;;;;;;;1.00;1.00;;;;;11.06;58.17;100112.25;5038093;28;47184;-64
2022/04/06 05:13:14;;;;;;;;;1.00;1.00;;;;;11.06;58.05;100112.25;5037583;28;45385;-64
2022/04/06 05:15:39;;;;;;;;;1.00;1.00;;;;;11.09;58.29;100117.38;5038033;28;45371;-63
2022/04/06 05:18:05;;;;;;;;;1.33;1.33;;;;;11.05;57.61;100113.19;5037864;28;45502;-64
2022/04/06 05:20:30;;;;;;;;;2.00;2.00;;;;;10.99;57.76;100095.06;5037750;28;46008;-63
2022/04/06 05:22:56;;;;;;;;;2.33;2.33;;;;;11.12;57.86;100108.50;5037742;28;45382;-64
2022/04/06 05:25:21;;;;;;;;;2.00;2.00;;;;;11.12;57.95;100104.06;5037788;28;45425;-63
2022/04/06 05:27:49;;;;;;;;;2.00;2.00;;;;;11.07;57.95;100106.09;5037809;28;45385;-64
2022/04/06 05:30:16;;;;;;;;;3.00;3.00;;;;;11.12;57.85;100103.22;5037621;28;46329;-64
2022/04/06 05:32:42;;;;;;;;;3.00;3.00;;;;;11.02;57.81;100111.56;5037464;28;45493;-63
2022/04/06 05:35:09;;;;;;;;;4.00;4.00;;;;;11.04;58.65;100116.72;5037602;28;45486;-63
2022/04/06 05:37:35;;;;;;;;;5.00;5.00;;;;;11.00;58.08;100123.06;5037665;28;45407;-64
2022/04/06 05:40:01;;;;;;;;;5.00;3.67;;;;;11.00;58.12;100129.19;5037284;28;45419;-64
2022/04/06 05:42:29;;;;;;;;;1.00;1.00;;;;;10.98;58.05;100127.53;5037167;28;45533;-64
2022/04/06 05:44:54;;;;;;;;;3.00;3.00;;;;;10.95;58.33;100115.38;5037530;28;45481;-64
2022/04/06 05:47:19;;;;;;;;;2.67;2.00;;;;;11.01;59.22;100124.75;5037445;28;45495;-64
2022/04/06 05:49:45;;;;;;;;;3.00;3.00;;;;;10.95;58.39;100118.00;5037322;28;45472;-65
2022/04/06 05:52:10;;;;;;;;;5.00;2.00;;;;;10.98;58.56;100122.28;5037506;28;45489;-63
2022/04/06 05:54:36;;;;;;;;;4.33;2.67;;;;;10.93;59.16;100124.25;5037232;28;45493;-64
2022/04/06 05:57:02;;;;;;;;;2.00;2.00;;;;;10.92;58.91;100115.50;5037264;28;45682;-65
2022/04/06 05:59:27;;;;;;;;;2.67;2.67;;;;;10.88;59.45;100103.44;5037119;28;45538;-64
2022/04/06 06:01:53;;;;;;;;;3.00;1.00;;;;;10.90;59.44;100121.75;5036729;28;45430;-63
2022/04/06 06:04:18;;;;;;;;;4.67;3.00;;;;;10.86;59.30;100117.56;5037315;28;45443;-65
2022/04/06 06:06:43;;;;;;;;;1.33;1.33;;;;;10.71;59.37;100096.25;5035871;28;45423;-63
2022/04/06 06:09:09;;;;;;;;;2.00;2.00;;;;;10.80;59.39;100109.03;5036952;28;45402;-64
2022/04/06 06:11:34;;;;;;;;;2.67;2.67;;;;;10.81;59.06;100110.72;5036863;28;46269;-63
2022/04/06 06:13:59;;;;;;;;;3.00;3.00;;;;;10.79;59.49;100112.56;5036897;28;45515;-65
2022/04/06 06:16:25;;;;;;;;;2.67;2.67;;;;;10.82;59.73;100111.56;5037024;28;45513;-66
2022/04/06 06:18:50;;;;;;;;;2.67;1.33;;;;;10.84;59.04;100113.22;5036784;28;45538;-66
2022/04/06 06:21:15;;;;;;;;;2.67;2.67;;;;;10.86;59.85;100107.91;5036519;28;45530;-63
2022/04/06 06:23:41;;;;;;;;;2.00;2.00;;;;;10.78;59.97;100096.88;5036852;28;45784;-64
2022/04/06 06:26:06;;;;;;;;;6.67;3.00;;;;;10.82;59.94;100104.53;5036785;28;45355;-63
2022/04/06 06:28:31;;;;;;;;;3.33;3.33;;;;;10.82;59.88;100104.53;5036391;28;46135;-64
2022/04/06 06:30:57;;;;;;;;;3.00;3.00;;;;;10.82;59.77;100096.63;5036769;28;45486;-65
2022/04/06 06:33:22;;;;;;;;;2.00;2.00;;;;;10.77;59.48;100098.66;5035422;28;45431;-64
2022/04/06 06:35:48;;;;;;;;;2.00;2.00;;;;;10.80;59.23;100106.41;5036657;28;45610;-64
2022/04/06 06:38:13;;;;;;;;;4.00;2.00;;;;;10.77;59.48;100101.28;5036364;28;45355;-63
2022/04/06 06:40:38;;;;;;;;;3.00;3.00;;;;;10.73;60.21;100096.22;5035203;28;45374;-64
2022/04/06 06:43:04;;;;;;;;;3.00;3.00;;;;;10.78;59.50;100100.34;5036771;28;45305;-66
2022/04/06 06:45:29;;;;;;;;;2.00;2.00;;;;;10.77;60.09;100097.78;5036613;28;45383;-65
2022/04/06 06:47:55;;;;;;;;;2.67;2.67;;;;;10.75;59.64;100100.47;5036340;28;46267;-63
2022/04/06 06:50:20;;;;;;;;;3.00;3.00;;;;;10.80;60.16;100098.50;5036228;28;45354;-65
2022/04/06 06:52:46;;;;;;;;;2.33;2.33;;;;;10.82;60.22;100094.00;5036441;28;45412;-64
2022/04/06 06:55:12;;;;;;;;;4.67;3.33;;;;;10.81;59.93;100091.47;5036477;28;45656;-65
2022/04/06 06:57:37;;;;;;;;;2.67;2.67;;;;;10.88;60.02;100099.91;5034893;28;46280;-64
2022/04/06 07:00:04;;;;;;;;;2.00;2.00;;;;;10.89;59.45;100088.50;5036081;28;45381;-65
2022/04/06 07:02:29;;;;;;;;;1.00;1.00;;;;;10.88;60.04;100095.53;5036221;28;45519;-64
2022/04/06 07:04:55;;;;;;;;;2.33;1.33;;;;;10.90;59.44;100095.44;5036233;28;45561;-64
2022/04/06 07:07:20;;;;;;;;;1.00;1.00;;;;;10.88;59.30;100087.66;5035828;28;46080;-64
2022/04/06 07:09:45;;;;;;;;;3.00;3.00;;;;;10.94;59.59;100091.78;5036180;28;45529;-64
2022/04/06 07:12:11;;;;;;;;;3.00;3.00;;;;;10.97;59.93;100086.38;5035141;28;45458;-64
2022/04/06 07:14:37;;;;;;;;;3.00;3.00;;;;;10.95;59.08;100077.69;5036169;28;45661;-63
2022/04/06 07:17:03;;;;;;;;;3.00;2.67;;;;;10.94;59.29;100083.88;5035691;28;46008;-65
2022/04/06 07:19:28;;;;;;;;;1.33;1.33;;;;;10.96;59.40;100079.38;5035758;28;45544;-64
2022/04/06 07:21:53;;;;;;;;;3.67;3.33;;;;;11.00;59.02;100083.59;5035786;28;45539;-64
2022/04/06 07:24:19;;;;;;;;;2.33;2.33;;;;;11.03;59.33;100081.66;5035806;28;47323;-64
2022/04/06 07:26:44;;;;;;;;;3.00;3.00;;;;;11.09;58.99;100083.16;5033865;28;51359;-64
2022/04/06 07:29:11;;;;;;;;;1.00;1.00;;;;;11.11;58.93;100086.59;5035806;28;45424;-65
2022/04/06 07:31:40;;;;;;;;;3.00;3.00;;;;;11.15;59.04;100079.41;5035766;28;45463;-64
2022/04/06 07:34:06;;;;;;;;;4.67;4.33;;;;;11.17;58.55;100080.19;5035589;28;45458;-63
2022/04/06 07:36:34;;;;;;;;;2.00;1.67;;;;;11.19;58.83;100070.44;5035369;28;46163;-64
2022/04/06 07:39:02;;;;;;;;;3.00;2.00;;;;;11.17;59.10;100077.56;5035533;28;45402;-66
2022/04/06 07:41:28;;;;;;;;;2.00;2.00;;;;;11.10;58.63;100069.09;5035583;28;45359;-64
2022/04/06 07:43:53;;;;;;;;;4.00;2.00;;;;;11.15;58.74;100082.91;5035725;28;45601;-63
2022/04/06 07:46:19;;;;;;;;;2.00;2.00;;;;;11.14;58.58;100081.19;5035249;28;46122;-64
2022/04/06 07:48:44;;;;;;;;;3.00;3.00;;;;;11.16;58.98;100078.50;5035504;28;45519;-64
2022/04/06 07:51:10;;;;;;;;;3.00;3.00;;;;;11.14;58.53;100075.06;5035545;28;45487;-65
2022/04/06 07:53:35;;;;;;;;;3.00;3.00;;;;;11.18;58.67;100074.03;5035461;28;45510;-63
2022/04/06 07:56:01;;;;;;;;;3.00;2.00;;;;;11.17;58.29;100069.66;5035569;28;46195;-64
2022/04/06 07:58:26;;;;;;;;;1.67;1.67;;;;;11.21;58.54;100069.44;5035369;28;45564;-63
2022/04/06 08:00:52;;;;;;;;;2.00;2.00;;;;;11.17;59.03;100067.88;5035452;28;45407;-64
2022/04/06 08:03:17;;;;;;;;;2.00;2.00;;;;;11.18;59.27;100059.06;5035442;28;45476;-63
2022/04/06 08:05:42;;;;;;;;;3.00;3.00;;;;;11.23;58.67;100056.19;5035227;28;45573;-64
2022/04/06 08:08:08;;;;;;;;;2.00;2.00;;;;;11.23;57.98;100057.09;5035073;28;45464;-64
2022/04/06 08:10:33;;;;;;;;;1.00;1.00;;;;;11.21;58.22;100051.03;5035384;28;45423;-64
2022/04/06 08:12:59;;;;;;;;;2.67;1.00;;;;;11.30;57.89;100051.53;5035411;28;45381;-64
2022/04/06 08:15:24;;;;;;;;;2.67;2.67;;;;;11.28;58.17;100041.94;5035082;28;45439;-64
2022/04/06 08:17:49;;;;;;;;;2.00;2.00;;;;;11.30;58.74;100044.47;5035288;28;45456;-63
2022/04/06 08:20:17;;;;;;;;;1.00;1.00;;;;;11.26;58.17;100033.25;5035411;28;45507;-64
2022/04/06 08:22:45;;;;;;;;;1.33;1.33;;;;;11.30;58.32;100041.84;5035383;28;45450;-65
2022/04/06 08:25:11;;;;;;;;;0.67;0.33;;;;;11.31;58.47;100040.06;5034838;28;45461;-64
2022/04/06 08:27:40;;;;;;;;;1.00;1.00;;;;;11.35;58.79;100033.72;5034994;28;45427;-63
2022/04/06 08:30:07;;;;;;;;;2.00;2.00;;;;;11.41;57.96;100049.22;5040490;28;45493;-65
2022/04/06 08:32:32;;;;;;;;;2.67;2.33;;;;;11.34;58.11;100034.63;5041282;28;45413;-64
2022/04/06 08:34:58;;;;;;;;;2.00;2.00;;;;;11.41;58.57;100034.28;5041231;28;45997;-63
2022/04/06 08:37:23;;;;;;;;;3.00;2.00;;;;;11.44;57.83;100035.91;5040316;28;45537;-64
2022/04/06 08:39:49;;;;;;;;;2.00;1.00;;;;;11.48;57.58;100032.22;5041342;28;45374;-64
2022/04/06 08:42:14;;;;;;;;;2.00;2.00;;;;;11.53;57.62;100035.50;5041448;28;45496;-64
2022/04/06 08:44:40;;;;;;;;;2.67;2.67;;;;;11.55;58.02;100035.41;5040150;28;45496;-64
2022/04/06 08:47:06;;;;;;;;;2.33;2.33;;;;;11.58;57.46;100030.84;5041281;28;45445;-64
2022/04/06 08:49:35;;;;;;;;;1.33;1.33;;;;;11.54;57.58;100021.38;5040361;28;45468;-64
2022/04/06 08:52:03;;;;;;;;;1.67;1.67;;;;;11.61;57.61;100032.50;5041348;28;45525;-63
2022/04/06 08:54:29;;;;;;;;;4.00;4.00;;;;;11.65;57.17;100034.03;5040954;28;45372;-64
2022/04/06 08:56:55;;;;;;;;;1.67;1.67;;;;;11.60;57.81;100023.72;5041210;28;45434;-64
2022/04/06 08:59:20;;;;;;;;;3.33;2.33;;;;;11.69;57.10;100025.91;5041249;28;45465;-64
2022/04/06 09:01:46;;;;;;;;;2.67;2.67;;;;;11.71;57.59;100031.09;5041123;28;45610;-64
2022/04/06 09:04:12;;;;;;;;;3.00;3.00;;;;;11.73;57.80;100027.44;5041181;28;45442;-63
2022/04/06 09:06:42;;;;;;;;;3.33;2.00;;;;;11.69;58.04;100023.28;5040841;28;45414;-64
2022/04/06 09:09:08;;;;;;;;;2.67;2.67;;;;;11.69;58.25;100023.28;5041174;28;45517;-63
2022/04/06 09:11:44;;;;;;;;;3.67;2.33;;;;;11.63;57.68;100012.16;5039782;28;45570;-64
2022/04/06 09:14:10;;;;;;;;;5.00;4.00;;;;;11.63;57.71;100020.06;5040926;28;46095;-63
2022/04/06 09:16:36;;;;;;;;;4.33;3.00;;;;;11.63;58.11;100022.72;5040820;28;45451;-64
2022/04/06 09:19:10;;;;;;;;;2.00;2.00;;;;;11.72;58.36;100025.75;5040954;28;45477;-64
2022/04/06 09:21:43;;;;;;;;;3.33;3.00;;;;;11.75;57.98;100021.28;5041151;28;45458;-64
2022/04/06 09:24:17;;;;;;;;;4.00;4.00;;;;;11.76;57.41;100025.59;5040934;28;45521;-64
2022/04/06 09:26:43;;;;;;;;;4.00;4.00;;;;;11.75;57.87;100019.47;5040698;28;45409;-64
2022/04/06 09:29:15;;;;;;;;;4.00;3.00;;;;;11.75;57.55;100010.72;5041034;28;45464;-64
2022/04/06 09:31:41;;;;;;;;;3.00;3.00;;;;;11.81;57.42;100020.97;5039771;28;45633;-64
2022/04/06 09:34:10;;;;;;;;;4.00;3.33;;;;;11.82;57.13;100027.91;5040565;28;45418;-64
2022/04/06 09:36:38;;;;;;;;;3.33;3.33;;;;;11.78;57.60;100005.31;5040687;28;45478;-64
2022/04/06 09:39:05;;;;;;;;;2.67;2.67;;;;;11.87;58.11;100024.16;5041036;28;45412;-64
2022/04/06 09:41:30;;;;;;;;;2.00;2.00;;;;;11.89;57.02;100013.56;5038027;28;45463;-64
2022/04/06 09:44:07;;;;;;;;;3.67;3.67;;;;;11.89;57.83;100014.41;5037263;28;46302;-64
2022/04/06 09:49:21;;;;;;;;;3.00;3.00;;;;;11.95;57.17;100018.50;5037145;28;45550;-63
2022/04/06 09:51:50;;;;;;;;;8.00;4.00;;;;;11.93;57.87;100020.38;5037335;28;45412;-63
2022/04/06 09:54:15;;;;;;;;;2.33;2.33;;;;;11.88;57.32;100011.84;5037023;28;46557;-64
2022/04/06 09:56:43;;;;;;;;;5.00;5.00;;;;;11.90;56.71;100016.13;5036998;28;45498;-63
2022/04/06 09:59:09;;;;;;;;;4.00;4.00;;;;;11.87;56.82;100016.25;5036361;28;45512;-64
2022/04/06 10:01:38;;;;;;;;;3.67;3.67;;;;;11.87;56.78;100016.25;5036394;28;45509;-64
2022/04/06 10:04:09;;;;;;;;;6.00;4.67;;;;;11.85;56.84;100014.63;5036631;28;45498;-64
2022/04/06 10:06:37;;;;;;;;;4.00;4.00;;;;;11.85;57.38;100014.63;5036640;28;45525;-64
2022/04/06 10:09:05;;;;;;;;;3.00;3.00;;;;;11.90;57.31;100016.13;5036951;28;45490;-64
2022/04/06 10:11:33;;;;;;;;;5.00;5.00;;;;;11.91;57.04;100020.47;5036477;28;45610;-64
2022/04/06 10:14:00;;;;;;;;;4.33;3.67;;;;;11.90;57.67;100007.34;5036263;28;45435;-64
2022/04/06 10:16:26;;;;;;;;;3.00;3.00;;;;;11.98;56.86;100002.53;5036443;28;45430;-63
2022/04/06 10:18:53;;;;;;;;;5.67;5.67;;;;;12.01;57.59;100002.41;5036387;28;45423;-63
2022/04/06 10:21:41;;;;;;;;;3.33;3.33;;;;;12.07;57.06;99991.53;5036197;28;45623;-65
2022/04/06 10:24:17;;;;;;;;;3.33;2.67;;;;;12.13;57.15;99993.84;5035252;28;46290;-65
2022/04/06 10:26:59;;;;;;;;;5.00;5.00;;;;;12.21;56.23;99982.91;5036697;28;45489;-64
2022/04/06 10:29:25;;;;;;;;;4.00;3.00;;;;;12.31;57.12;99994.69;5036879;28;45363;-64
2022/04/06 10:31:50;;;;;;;;;3.00;3.00;;;;;12.34;56.13;99991.06;5036421;28;45589;-64
2022/04/06 10:34:24;;;;;;;;;3.67;3.67;;;;;12.38;56.13;99984.66;5036222;28;46071;-66
2022/04/06 10:37:03;;;;;;;;;12.00;11.00;;;;;12.42;55.99;99993.28;5036295;28;45397;-63
2022/04/06 10:39:28;;;;;;;;;5.00;4.00;;;;;12.40;55.96;99985.44;5036134;28;45465;-64
2022/04/06 10:42:27;;;;;;;;;6.00;4.00;;;;;12.40;55.50;99980.16;5035979;28;45586;-65
2022/04/06 10:44:54;;;;;;;;;5.00;5.00;;;;;12.41;55.59;99983.66;5036043;28;45403;-64
2022/04/06 10:47:21;;;;;;;;;8.00;6.00;;;;;12.34;55.26;99962.03;5035767;28;45411;-64
2022/04/06 10:50:13;;;;;;;;;4.00;4.00;;;;;12.30;56.11;99969.25;5036439;28;45459;-65
2022/04/06 10:52:39;;;;;;;;;6.33;4.33;;;;;12.32;56.39;99967.38;5035532;28;45439;-65
2022/04/06 10:55:31;;;;;;;;;7.00;5.00;;;;;12.31;56.08;99938.47;5034271;28;46301;-64
2022/04/06 10:58:02;;;;;;;;;12.00;10.00;;;;;12.46;56.17;99945.56;5032091;28;45424;-64
2022/04/06 11:00:28;;;;;;;;;4.67;4.00;;;;;12.51;56.70;99950.59;5034339;28;45453;-64
2022/04/06 11:02:58;;;;;;;;;3.67;3.67;;;;;12.49;56.46;99931.34;5034285;28;45606;-64
2022/04/06 11:05:48;;;;;;;;;5.33;5.33;;;;;12.54;56.42;99927.53;5035704;28;45367;-64
2022/04/06 11:11:37;;;;;;;;;6.33;6.33;;;;;12.68;55.95;99929.44;5035875;28;45442;-65
2022/04/06 11:14:03;;;;;;;;;8.00;8.00;;;;;12.60;56.36;99927.22;5035718;28;45491;-64
2022/04/06 11:16:40;;;;;;;;;4.00;4.00;;;;;12.63;56.93;99913.00;5035760;28;46082;-64
2022/04/06 11:19:06;;;;;;;;;6.67;6.67;;;;;12.67;56.38;99911.03;5035454;28;45400;-65
2022/04/06 11:21:32;;;;;;;;;6.67;4.67;;;;;12.70;56.44;99916.97;5035651;28;45447;-64
2022/04/06 11:23:57;;;;;;;;;6.33;5.33;;;;;12.67;56.45;99908.41;5035440;28;45694;-64
2022/04/06 11:26:24;;;;;;;;;8.33;8.33;;;;;12.63;56.84;99909.50;5035346;28;46047;-64
2022/04/06 11:28:58;;;;;;;;;4.67;4.67;;;;;12.62;56.94;99897.25;5035572;28;45470;-63
2022/04/06 11:31:23;;;;;;;;;5.00;5.00;;;;;12.61;57.20;99901.69;5035490;28;45383;-65
2022/04/06 11:33:49;;;;;;;;;6.33;5.33;;;;;12.59;56.50;99885.06;5035192;28;45531;-65